createdAt,value
2022-11-20T00:00:18.905Z,1.81
2022-11-20T00:03:05.685Z,1.83
2022-11-20T00:05:34.144Z,1.78
2022-11-20T00:08:00.864Z,1.70
2022-11-20T00:10:27.928Z,1.75
2022-11-20T00:12:54.730Z,1.73
2022-11-20T00:15:21.744Z,1.76
2022-11-20T00:17:48.505Z,1.66
2022-11-20T00:20:15.668Z,1.68
2022-11-20T00:22:42.390Z,1.67
2022-11-20T00:25:09.713Z,1.64
2022-11-20T00:27:36.710Z,1.67
2022-11-20T00:30:04.666Z,1.66
2022-11-20T00:32:31.404Z,1.62
2022-11-20T00:34:58.436Z,1.59
2022-11-20T00:37:25.146Z,1.61
2022-11-20T00:39:52.196Z,1.59
2022-11-20T00:42:19.049Z,1.56
2022-11-20T00:44:46.115Z,1.59
2022-11-20T00:47:12.879Z,1.59
2022-11-20T00:49:39.988Z,1.58
2022-11-20T00:52:06.715Z,1.57
2022-11-20T00:54:33.747Z,1.54
2022-11-20T00:57:00.486Z,1.55
2022-11-20T00:59:27.551Z,1.52
2022-11-20T01:01:54.307Z,1.50
2022-11-20T01:04:21.354Z,1.48
2022-11-20T01:06:48.084Z,1.50
2022-11-20T01:09:15.227Z,1.50
2022-11-20T01:11:43.414Z,1.43
2022-11-20T01:14:12.928Z,1.39
2022-11-20T01:16:50.437Z,1.37
2022-11-20T01:19:22.228Z,1.40
2022-11-20T01:21:51.468Z,1.32
2022-11-20T01:24:19.481Z,1.37
2022-11-20T01:26:47.415Z,1.37
2022-11-20T01:29:22.351Z,1.38
2022-11-20T01:31:49.334Z,1.36
2022-11-20T01:34:18.677Z,1.36
2022-11-20T01:36:45.718Z,1.34
2022-11-20T01:39:14.992Z,1.35
2022-11-20T01:42:00.382Z,1.29
2022-11-20T01:44:55.359Z,1.28
2022-11-20T01:47:34.407Z,1.24
2022-11-20T01:50:11.826Z,1.26
2022-11-20T01:52:49.215Z,1.24
2022-11-20T01:55:20.961Z,1.26
2022-11-20T01:57:47.758Z,1.24
2022-11-20T02:00:16.108Z,1.21
2022-11-20T02:02:45.531Z,1.19
2022-11-20T02:05:44.814Z,1.18
2022-11-20T02:08:11.577Z,1.18
2022-11-20T02:10:38.617Z,1.15
2022-11-20T02:13:23.984Z,1.11
2022-11-20T02:15:51.035Z,1.09
2022-11-20T02:18:18.744Z,1.07
2022-11-20T02:20:47.399Z,1.09
2022-11-20T02:23:37.828Z,1.07
2022-11-20T02:26:05.923Z,1.03
2022-11-20T02:28:32.644Z,1.01
2022-11-20T02:30:59.748Z,1.01
2022-11-20T02:33:26.524Z,1.00
2022-11-20T02:35:53.584Z,0.97
2022-11-20T02:38:20.277Z,0.97
2022-11-20T02:40:51.404Z,0.97
2022-11-20T02:43:20.894Z,0.92
2022-11-20T02:45:47.980Z,0.96
2022-11-20T02:48:14.760Z,0.93
2022-11-20T02:50:41.904Z,0.90
2022-11-20T02:53:08.768Z,0.90
2022-11-20T02:55:35.803Z,0.86
2022-11-20T02:58:02.555Z,0.85
2022-11-20T03:00:29.571Z,0.80
2022-11-20T03:02:56.359Z,0.80
2022-11-20T03:05:23.857Z,0.76
2022-11-20T03:07:50.571Z,0.75
2022-11-20T03:10:17.851Z,0.71
2022-11-20T03:12:44.554Z,0.74
2022-11-20T03:15:11.655Z,0.74
2022-11-20T03:17:38.416Z,0.78
2022-11-20T03:20:06.891Z,0.74
2022-11-20T03:22:33.768Z,0.72
2022-11-20T03:25:00.781Z,0.70
2022-11-20T03:27:27.547Z,0.67
2022-11-20T03:29:54.523Z,0.63
2022-11-20T03:32:21.219Z,0.66
2022-11-20T03:34:48.259Z,0.64
2022-11-20T03:37:15.018Z,0.62
2022-11-20T03:39:42.084Z,0.64
2022-11-20T03:42:29.512Z,0.62
2022-11-20T03:44:56.576Z,0.60
2022-11-20T03:47:23.307Z,0.58
2022-11-20T03:49:50.355Z,0.58
2022-11-20T03:52:17.118Z,0.56
2022-11-20T03:54:44.184Z,0.53
2022-11-20T03:57:10.886Z,0.51
2022-11-20T03:59:37.890Z,0.51
2022-11-20T04:02:04.633Z,0.50
2022-11-20T04:04:31.742Z,0.49
2022-11-20T04:06:58.535Z,0.49
2022-11-20T04:09:25.659Z,0.47
2022-11-20T04:11:52.395Z,0.47
2022-11-20T04:14:19.465Z,0.47
2022-11-20T04:16:46.206Z,0.43
2022-11-20T04:19:15.049Z,0.45
2022-11-20T04:21:42.363Z,0.44
2022-11-20T04:24:09.581Z,0.41
2022-11-20T04:26:36.301Z,0.35
2022-11-20T04:29:03.399Z,0.39
2022-11-20T04:31:33.594Z,0.35
2022-11-20T04:34:04.859Z,0.29
2022-11-20T04:36:31.905Z,0.31
2022-11-20T04:39:01.018Z,0.28
2022-11-20T04:41:29.609Z,0.32
2022-11-20T04:44:00.588Z,0.30
2022-11-20T04:46:28.024Z,0.25
2022-11-20T04:48:55.015Z,0.26
2022-11-20T04:51:21.767Z,0.22
2022-11-20T04:53:48.873Z,0.22
2022-11-20T04:56:15.769Z,0.24
2022-11-20T04:58:42.882Z,0.17
2022-11-20T05:01:14.355Z,0.21
2022-11-20T05:03:42.649Z,0.17
2022-11-20T05:06:10.583Z,0.20
2022-11-20T05:08:37.632Z,0.16
2022-11-20T05:11:09.489Z,0.17
2022-11-20T05:13:36.680Z,0.20
2022-11-20T05:16:08.331Z,0.14
2022-11-20T05:18:35.909Z,0.15
2022-11-20T05:21:02.731Z,0.13
2022-11-20T05:23:31.804Z,0.15
2022-11-20T05:25:59.334Z,0.10
2022-11-20T05:28:27.368Z,0.12
2022-11-20T05:30:54.186Z,0.08
2022-11-20T05:33:21.581Z,0.04
2022-11-20T05:35:49.413Z,0.06
2022-11-20T05:38:16.671Z,0.05
2022-11-20T05:40:43.656Z,0.07
2022-11-20T05:43:10.769Z,0.01
2022-11-20T05:45:37.562Z,-0.04
2022-11-20T05:48:04.790Z,-0.03
2022-11-20T05:50:31.540Z,-0.02
2022-11-20T05:53:01.670Z,-0.04
2022-11-20T05:55:28.603Z,-0.07
2022-11-20T05:57:56.074Z,-0.06
2022-11-20T06:00:23.188Z,-0.14
2022-11-20T06:02:50.341Z,-0.06
2022-11-20T06:05:17.162Z,-0.11
2022-11-20T06:07:44.178Z,-0.09
2022-11-20T06:10:12.535Z,-0.10
2022-11-20T06:12:39.574Z,-0.12
2022-11-20T06:15:06.893Z,-0.14
2022-11-20T06:17:33.910Z,-0.15
2022-11-20T06:20:00.605Z,-0.15
2022-11-20T06:22:27.641Z,-0.18
2022-11-20T06:24:54.317Z,-0.20
2022-11-20T06:27:21.346Z,-0.18
2022-11-20T06:29:48.115Z,-0.19
2022-11-20T06:32:15.142Z,-0.25
2022-11-20T06:34:41.867Z,-0.30
2022-11-20T06:37:08.870Z,-0.28
2022-11-20T06:39:35.615Z,-0.28
2022-11-20T06:42:02.654Z,-0.29
2022-11-20T06:44:29.405Z,-0.20
2022-11-20T06:46:56.445Z,-0.21
2022-11-20T06:49:23.621Z,-0.26
2022-11-20T06:51:50.786Z,-0.25
2022-11-20T06:54:17.493Z,-0.25
2022-11-20T06:56:48.755Z,-0.27
2022-11-20T06:59:15.489Z,-0.25
2022-11-20T07:01:42.508Z,-0.25
2022-11-20T07:04:09.269Z,-0.20
2022-11-20T07:06:36.305Z,-0.21
2022-11-20T07:09:03.181Z,-0.20
2022-11-20T07:11:30.218Z,-0.21
2022-11-20T07:13:57.792Z,-0.22
2022-11-20T07:16:24.864Z,-0.21
2022-11-20T07:18:51.557Z,-0.16
2022-11-20T07:21:18.602Z,-0.12
2022-11-20T07:23:45.336Z,-0.10
2022-11-20T07:26:12.430Z,-0.08
2022-11-20T07:28:39.259Z,-0.03
2022-11-20T07:31:07.738Z,-0.02
2022-11-20T07:33:34.917Z,-0.10
2022-11-20T07:36:02.229Z,-0.05
2022-11-20T07:38:29.170Z,-0.05
2022-11-20T07:40:57.474Z,-0.07
2022-11-20T07:43:25.132Z,-0.03
2022-11-20T07:45:52.172Z,-0.02
2022-11-20T07:48:18.876Z,0.02
2022-11-20T07:50:45.883Z,0.03
2022-11-20T07:53:13.702Z,0.10
2022-11-20T07:55:40.943Z,0.09
2022-11-20T07:58:07.794Z,0.09
2022-11-20T08:00:34.833Z,0.16
2022-11-20T08:03:04.988Z,0.18
2022-11-20T08:05:32.041Z,0.21
2022-11-20T08:07:58.773Z,0.25
2022-11-20T08:10:25.986Z,0.27
2022-11-20T08:13:11.844Z,0.30
2022-11-20T08:15:40.780Z,0.34
2022-11-20T08:18:29.917Z,0.40
2022-11-20T08:20:56.264Z,0.42
2022-11-20T08:23:23.652Z,0.45
2022-11-20T08:25:50.986Z,0.50
2022-11-20T08:28:21.161Z,0.54
2022-11-20T08:30:49.978Z,0.60
2022-11-20T08:33:18.381Z,0.62
2022-11-20T08:35:45.527Z,0.70
2022-11-20T08:38:12.286Z,0.73
2022-11-20T08:40:39.324Z,0.77
2022-11-20T08:43:06.030Z,0.87
2022-11-20T08:45:34.887Z,0.90
2022-11-20T08:48:02.911Z,0.96
2022-11-20T08:50:31.711Z,1.04
2022-11-20T08:53:06.113Z,1.08
2022-11-20T08:55:33.333Z,1.10
2022-11-20T08:58:04.638Z,1.14
2022-11-20T09:00:31.713Z,1.22
2022-11-20T09:02:59.626Z,1.26
2022-11-20T09:05:26.722Z,1.32
2022-11-20T09:07:56.691Z,1.35
2022-11-20T09:10:24.940Z,1.39
2022-11-20T09:12:53.248Z,1.45
2022-11-20T09:15:20.351Z,1.48
2022-11-20T09:17:57.813Z,1.54
2022-11-20T09:20:25.388Z,1.58
2022-11-20T09:22:52.420Z,1.66
2022-11-20T09:25:19.527Z,1.70
2022-11-20T09:27:47.152Z,1.75
2022-11-20T09:30:15.263Z,1.77
2022-11-20T09:32:42.262Z,1.79
2022-11-20T09:35:09.752Z,1.81
2022-11-20T09:37:36.752Z,1.81
2022-11-20T09:40:04.116Z,1.83
2022-11-20T09:42:48.961Z,1.96
2022-11-20T09:45:47.169Z,2.01
2022-11-20T09:48:16.688Z,2.03
2022-11-20T09:50:48.855Z,2.09
2022-11-20T09:53:41.959Z,2.13
2022-11-20T09:56:09.796Z,2.18
2022-11-20T09:58:55.749Z,2.23
2022-11-20T10:01:24.625Z,2.30
2022-11-20T10:04:03.622Z,2.36
2022-11-20T10:06:42.340Z,2.40
2022-11-20T10:09:27.988Z,2.46
2022-11-20T10:12:07.257Z,2.55
2022-11-20T10:14:46.100Z,2.60
2022-11-20T10:17:32.048Z,2.67
2022-11-20T10:20:32.537Z,2.72
2022-11-20T10:23:40.965Z,2.75
2022-11-20T10:26:23.894Z,2.81
2022-11-20T10:29:02.391Z,2.84
2022-11-20T10:31:34.472Z,2.88
2022-11-20T10:34:11.978Z,2.89
2022-11-20T10:36:42.649Z,2.94
2022-11-20T10:39:20.232Z,3.05
2022-11-20T10:41:48.540Z,3.11
2022-11-20T10:44:39.928Z,3.16
2022-11-20T10:47:22.653Z,3.24
2022-11-20T10:49:52.295Z,3.30
2022-11-20T10:52:50.418Z,3.36
2022-11-20T10:55:46.180Z,3.39
2022-11-20T10:58:34.642Z,3.45
2022-11-20T11:01:24.174Z,3.50
2022-11-20T11:03:52.756Z,3.55
2022-11-20T11:06:41.095Z,3.60
2022-11-20T11:09:18.394Z,3.64
2022-11-20T11:11:45.401Z,3.71
2022-11-20T11:14:15.864Z,3.76
2022-11-20T11:16:58.630Z,3.83
2022-11-20T11:19:25.840Z,3.86
2022-11-20T11:21:57.519Z,3.88
2022-11-20T11:24:42.823Z,3.94
2022-11-20T11:27:17.215Z,4.02
2022-11-20T11:29:44.927Z,4.04
2022-11-20T11:32:15.060Z,4.08
2022-11-20T11:34:41.826Z,4.14
2022-11-20T11:37:19.282Z,4.19
2022-11-20T11:39:47.551Z,4.23
2022-11-20T11:42:19.519Z,4.31
2022-11-20T11:45:05.990Z,4.38
2022-11-20T11:47:39.127Z,4.40
2022-11-20T11:50:22.095Z,4.41
2022-11-20T11:53:07.429Z,4.46
2022-11-20T11:56:00.045Z,4.53
2022-11-20T11:58:42.286Z,4.60
2022-11-20T12:01:12.859Z,4.64
2022-11-20T12:03:42.297Z,4.73
2022-11-20T12:06:15.748Z,4.75
2022-11-20T12:08:47.865Z,4.79
2022-11-20T12:11:19.495Z,4.82
2022-11-20T12:13:46.620Z,4.90
2022-11-20T12:16:15.635Z,4.95
2022-11-20T12:18:42.995Z,5.00
2022-11-20T12:21:25.426Z,5.05
2022-11-20T12:24:16.529Z,5.10
2022-11-20T12:26:56.515Z,5.16
2022-11-20T12:29:46.819Z,5.15
2022-11-20T12:32:16.590Z,5.18
2022-11-20T12:35:01.439Z,5.22
2022-11-20T12:37:45.687Z,5.28
2022-11-20T12:40:34.136Z,5.30
2022-11-20T12:43:25.414Z,5.30
2022-11-20T12:46:18.316Z,5.32
2022-11-20T12:48:48.066Z,5.33
2022-11-20T12:51:54.628Z,5.35
2022-11-20T12:54:51.982Z,5.29
2022-11-20T12:57:35.533Z,5.34
2022-11-20T13:00:07.316Z,5.34
2022-11-20T13:02:40.228Z,5.30
2022-11-20T13:05:19.242Z,5.32
2022-11-20T13:07:47.032Z,5.32
2022-11-20T13:10:25.878Z,5.37
2022-11-20T13:12:58.477Z,5.35
2022-11-20T13:15:43.996Z,5.32
2022-11-20T13:18:11.416Z,5.35
2022-11-20T13:20:42.672Z,5.34
2022-11-20T13:23:09.752Z,5.35
2022-11-20T13:25:38.212Z,5.32
2022-11-20T13:28:12.498Z,5.36
2022-11-20T13:30:50.564Z,5.35
2022-11-20T13:33:31.689Z,5.34
2022-11-20T13:36:20.589Z,5.36
2022-11-20T13:38:49.267Z,5.38
2022-11-20T13:41:36.586Z,5.37
2022-11-20T13:44:09.860Z,5.38
2022-11-20T13:46:40.698Z,5.39
2022-11-20T13:49:10.337Z,5.38
2022-11-20T13:51:51.604Z,5.36
2022-11-20T13:54:52.716Z,5.38
2022-11-20T13:57:33.714Z,5.41
2022-11-20T14:00:21.893Z,5.41
2022-11-20T14:03:06.791Z,5.39
2022-11-20T14:05:41.526Z,5.38
2022-11-20T14:08:15.494Z,5.40
2022-11-20T14:10:42.790Z,5.42
2022-11-20T14:13:20.012Z,5.42
2022-11-20T14:15:47.169Z,5.43
2022-11-20T14:18:15.947Z,5.45
2022-11-20T14:20:43.431Z,5.44
2022-11-20T14:23:11.065Z,5.43
2022-11-20T14:25:38.232Z,5.43
2022-11-20T14:28:04.982Z,5.43
2022-11-20T14:30:52.417Z,5.43
2022-11-20T14:33:20.843Z,5.44
2022-11-20T14:35:58.032Z,5.42
2022-11-20T14:38:27.023Z,5.42
2022-11-20T14:40:54.116Z,5.44
2022-11-20T14:43:28.074Z,5.42
2022-11-20T14:46:02.421Z,5.42
2022-11-20T14:48:39.311Z,5.39
2022-11-20T14:51:06.412Z,5.38
2022-11-20T14:53:33.170Z,5.34
2022-11-20T14:56:02.077Z,5.37
2022-11-20T14:58:31.154Z,5.42
2022-11-20T15:01:02.993Z,5.42
2022-11-20T15:03:37.495Z,5.40
2022-11-20T15:06:08.910Z,5.36
2022-11-20T15:08:35.696Z,5.34
2022-11-20T15:11:02.879Z,5.31
2022-11-20T15:13:37.468Z,5.32
2022-11-20T15:16:05.604Z,5.31
2022-11-20T15:18:34.074Z,5.29
2022-11-20T15:21:04.895Z,5.29
2022-11-20T15:23:31.611Z,5.30
2022-11-20T15:25:58.718Z,5.27
2022-11-20T15:28:31.606Z,5.27
2022-11-20T15:30:58.922Z,5.23
2022-11-20T15:33:25.659Z,5.23
2022-11-20T15:35:52.724Z,5.25
2022-11-20T15:38:19.421Z,5.24
2022-11-20T15:40:46.455Z,5.24
2022-11-20T15:43:14.078Z,5.23
2022-11-20T15:45:43.765Z,5.24
2022-11-20T15:48:14.430Z,5.24
2022-11-20T15:51:00.963Z,5.26
2022-11-20T15:53:28.204Z,5.23
2022-11-20T15:55:55.323Z,5.22
2022-11-20T15:58:23.939Z,5.22
2022-11-20T16:00:51.398Z,5.23
2022-11-20T16:03:18.473Z,5.23
2022-11-20T16:05:45.677Z,5.22
2022-11-20T16:08:12.470Z,5.22
2022-11-20T16:10:39.986Z,5.22
2022-11-20T16:13:32.506Z,5.19
2022-11-20T16:16:00.333Z,5.19
2022-11-20T16:18:27.055Z,5.18
2022-11-20T16:20:54.609Z,5.13
2022-11-20T16:23:21.609Z,5.14
2022-11-20T16:25:48.847Z,5.13
2022-11-20T16:28:18.929Z,5.14
2022-11-20T16:30:46.842Z,5.10
2022-11-20T16:33:15.285Z,5.12
2022-11-20T16:35:42.509Z,5.08
2022-11-20T16:38:09.315Z,5.06
2022-11-20T16:40:36.446Z,5.07
2022-11-20T16:43:09.743Z,5.04
2022-11-20T16:45:41.270Z,4.97
2022-11-20T16:48:08.060Z,4.97
2022-11-20T16:50:35.086Z,4.94
2022-11-20T16:53:01.821Z,4.92
2022-11-20T16:55:28.846Z,4.94
2022-11-20T16:57:55.583Z,4.95
2022-11-20T17:00:22.642Z,4.95
2022-11-20T17:02:49.474Z,4.94
2022-11-20T17:05:16.604Z,4.94
2022-11-20T17:07:43.343Z,4.95
2022-11-20T17:10:10.418Z,4.90
2022-11-20T17:12:37.172Z,4.92
2022-11-20T17:15:04.598Z,4.92
2022-11-20T17:17:31.317Z,4.90
2022-11-20T17:19:58.759Z,4.87
2022-11-20T17:22:25.484Z,4.88
2022-11-20T17:24:52.512Z,4.85
2022-11-20T17:27:19.189Z,4.83
2022-11-20T17:29:46.249Z,4.81
2022-11-20T17:32:13.071Z,4.81
2022-11-20T17:34:40.116Z,4.77
2022-11-20T17:37:06.915Z,4.77
2022-11-20T17:39:34.011Z,4.77
2022-11-20T17:42:19.178Z,4.78
2022-11-20T17:44:47.388Z,4.77
2022-11-20T17:47:14.206Z,4.75
2022-11-20T17:49:41.331Z,4.75
2022-11-20T17:52:08.029Z,4.75
2022-11-20T17:54:35.215Z,4.72
2022-11-20T17:57:20.484Z,4.65
2022-11-20T17:59:47.569Z,4.63
2022-11-20T18:02:14.506Z,4.65
2022-11-20T18:04:41.598Z,4.68
2022-11-20T18:07:08.721Z,4.67
2022-11-20T18:09:35.743Z,4.63
2022-11-20T18:12:02.468Z,4.58
2022-11-20T18:14:32.869Z,4.60
2022-11-20T18:17:02.705Z,4.62
2022-11-20T18:19:42.604Z,4.61
2022-11-20T18:22:12.583Z,4.59
2022-11-20T18:24:39.974Z,4.60
2022-11-20T18:27:07.456Z,4.61
2022-11-20T18:29:34.570Z,4.61
2022-11-20T18:32:01.583Z,4.60
2022-11-20T18:34:28.729Z,4.60
2022-11-20T18:36:55.504Z,4.61
2022-11-20T18:39:23.640Z,4.58
2022-11-20T18:42:09.056Z,4.60
2022-11-20T18:44:55.045Z,4.60
2022-11-20T18:47:22.908Z,4.59
2022-11-20T18:49:54.373Z,4.56
2022-11-20T18:52:23.154Z,4.57
2022-11-20T18:54:50.455Z,4.58
2022-11-20T18:57:18.427Z,4.56
2022-11-20T18:59:45.709Z,4.57
2022-11-20T19:02:13.598Z,4.55
2022-11-20T19:04:40.850Z,4.54
2022-11-20T19:07:07.887Z,4.56
2022-11-20T19:09:34.945Z,4.57
2022-11-20T19:12:01.645Z,4.51
2022-11-20T19:14:28.642Z,4.57
2022-11-20T19:16:55.410Z,4.56
2022-11-20T19:19:22.660Z,4.55
2022-11-20T19:21:49.602Z,4.55
2022-11-20T19:24:16.806Z,4.59
2022-11-20T19:26:43.644Z,4.60
2022-11-20T19:29:11.394Z,4.60
2022-11-20T19:31:38.114Z,4.62
2022-11-20T19:34:05.128Z,4.62
2022-11-20T19:36:39.166Z,4.60
2022-11-20T19:39:10.490Z,4.63
2022-11-20T19:41:38.334Z,4.63
2022-11-20T19:44:15.487Z,4.65
2022-11-20T19:46:42.426Z,4.64
2022-11-20T19:49:10.908Z,4.63
2022-11-20T19:51:38.575Z,4.64
2022-11-20T19:54:05.891Z,4.63
2022-11-20T19:56:33.407Z,4.67
2022-11-20T19:59:00.895Z,4.57
2022-11-20T20:01:29.301Z,4.57
2022-11-20T20:03:58.370Z,4.60
2022-11-20T20:06:25.857Z,4.63
2022-11-20T20:08:57.290Z,4.63
2022-11-20T20:11:25.089Z,4.65
2022-11-20T20:13:52.389Z,4.67
2022-11-20T20:16:20.745Z,4.66
2022-11-20T20:18:47.995Z,4.68
2022-11-20T20:21:16.830Z,4.64
2022-11-20T20:23:44.457Z,4.67
2022-11-20T20:26:11.350Z,4.65
2022-11-20T20:28:38.561Z,4.58
2022-11-20T20:31:15.980Z,4.62
2022-11-20T20:33:43.234Z,4.66
2022-11-20T20:36:11.233Z,4.63
2022-11-20T20:38:38.232Z,4.60
2022-11-20T20:41:05.117Z,4.57
2022-11-20T20:43:32.138Z,4.64
2022-11-20T20:45:58.844Z,4.60
2022-11-20T20:48:25.936Z,4.65
2022-11-20T20:51:00.110Z,4.70
2022-11-20T20:53:27.606Z,4.71
2022-11-20T20:55:58.189Z,4.62
2022-11-20T20:58:25.350Z,4.65
2022-11-20T21:00:52.216Z,4.64
2022-11-20T21:03:19.279Z,4.66
2022-11-20T21:05:46.327Z,4.63
2022-11-20T21:08:22.502Z,4.62
2022-11-20T21:10:49.418Z,4.58
2022-11-20T21:13:16.453Z,4.65
2022-11-20T21:15:43.436Z,4.63
2022-11-20T21:18:10.489Z,4.70
2022-11-20T21:20:58.458Z,4.65
2022-11-20T21:23:25.503Z,4.62
2022-11-20T21:25:52.296Z,4.69
2022-11-20T21:28:19.355Z,4.64
2022-11-20T21:30:46.604Z,4.65
2022-11-20T21:33:13.939Z,4.67
2022-11-20T21:35:41.483Z,4.63
2022-11-20T21:38:08.550Z,4.68
2022-11-20T21:40:35.305Z,4.64
2022-11-20T21:43:02.341Z,4.65
2022-11-20T21:45:29.092Z,4.65
2022-11-20T21:47:56.081Z,4.63
2022-11-20T21:50:24.033Z,4.62
2022-11-20T21:52:51.955Z,4.55
2022-11-20T21:55:18.699Z,4.62
2022-11-20T21:57:45.811Z,4.65
2022-11-20T22:00:13.144Z,4.59
2022-11-20T22:02:40.509Z,4.50
2022-11-20T22:05:08.156Z,4.59
2022-11-20T22:07:35.424Z,4.56
2022-11-20T22:10:02.259Z,4.58
2022-11-20T22:12:29.287Z,4.57
2022-11-20T22:14:55.983Z,4.58
2022-11-20T22:17:43.054Z,4.59
2022-11-20T22:20:10.304Z,4.58
2022-11-20T22:22:37.317Z,4.59
2022-11-20T22:25:04.274Z,4.53
2022-11-20T22:27:31.359Z,4.54
2022-11-20T22:29:58.127Z,4.59
2022-11-20T22:32:25.153Z,4.56
2022-11-20T22:34:51.899Z,4.52
2022-11-20T22:37:18.928Z,4.48
2022-11-20T22:39:45.623Z,4.42
2022-11-20T22:42:12.612Z,4.42
2022-11-20T22:44:39.347Z,4.44
2022-11-20T22:47:11.226Z,4.39
2022-11-20T22:49:38.300Z,4.38
2022-11-20T22:52:05.376Z,4.34
2022-11-20T22:54:32.149Z,4.37
2022-11-20T22:56:59.200Z,4.36
2022-11-20T22:59:26.146Z,4.35
2022-11-20T23:01:53.357Z,4.41
2022-11-20T23:04:20.163Z,4.39
2022-11-20T23:06:47.185Z,4.34
2022-11-20T23:09:13.999Z,4.30
2022-11-20T23:11:41.018Z,4.20
2022-11-20T23:14:12.303Z,4.24
2022-11-20T23:16:39.442Z,4.27
2022-11-20T23:19:11.165Z,4.26
2022-11-20T23:21:38.987Z,4.23
2022-11-20T23:24:06.242Z,4.27
2022-11-20T23:26:35.337Z,4.24
2022-11-20T23:29:02.162Z,4.21
2022-11-20T23:31:30.605Z,4.16
2022-11-20T23:33:57.390Z,4.20
2022-11-20T23:36:24.422Z,4.19
2022-11-20T23:38:51.144Z,4.16
2022-11-20T23:41:18.170Z,4.19
2022-11-20T23:43:44.885Z,4.13
2022-11-20T23:46:16.208Z,4.14
2022-11-20T23:48:44.873Z,4.13
2022-11-20T23:51:12.030Z,4.14
2022-11-20T23:53:38.733Z,4.12
2022-11-20T23:56:06.058Z,4.08
2022-11-20T23:58:34.554Z,4.04
